sensor_id;sensor_type;location;lat;lon;timestamp;P1;durP1;ratioP1;P2;durP2;ratioP2
54430;SDS011;40342;52.998;5.862;2022-12-20T00:01:50;7.00;;;3.30;;
54430;SDS011;40342;52.998;5.862;2022-12-20T00:04:15;4.97;;;3.67;;
54430;SDS011;40342;52.998;5.862;2022-12-20T00:06:41;6.70;;;3.78;;
54430;SDS011;40342;52.998;5.862;2022-12-20T00:09:07;6.25;;;3.63;;
54430;SDS011;40342;52.998;5.862;2022-12-20T00:11:34;4.80;;;3.70;;
54430;SDS011;40342;52.998;5.862;2022-12-20T00:14:00;6.15;;;3.67;;
54430;SDS011;40342;52.998;5.862;2022-12-20T00:16:26;4.93;;;3.85;;
54430;SDS011;40342;52.998;5.862;2022-12-20T00:18:54;5.97;;;3.70;;
54430;SDS011;40342;52.998;5.862;2022-12-20T00:21:21;5.18;;;3.50;;
54430;SDS011;40342;52.998;5.862;2022-12-20T00:23:47;6.45;;;3.10;;
54430;SDS011;40342;52.998;5.862;2022-12-20T00:26:14;6.72;;;3.38;;
54430;SDS011;40342;52.998;5.862;2022-12-20T00:28:42;7.93;;;3.83;;
54430;SDS011;40342;52.998;5.862;2022-12-20T00:31:09;9.80;;;3.78;;
54430;SDS011;40342;52.998;5.862;2022-12-20T00:33:36;8.63;;;3.33;;
54430;SDS011;40342;52.998;5.862;2022-12-20T00:36:03;5.35;;;3.67;;
54430;SDS011;40342;52.998;5.862;2022-12-20T00:38:29;4.85;;;3.40;;
54430;SDS011;40342;52.998;5.862;2022-12-20T00:41:02;4.57;;;3.80;;
54430;SDS011;40342;52.998;5.862;2022-12-20T00:45:54;7.93;;;3.72;;
54430;SDS011;40342;52.998;5.862;2022-12-20T00:48:20;3.95;;;3.03;;
54430;SDS011;40342;52.998;5.862;2022-12-20T00:50:46;5.95;;;3.30;;
54430;SDS011;40342;52.998;5.862;2022-12-20T00:53:12;5.65;;;3.30;;
54430;SDS011;40342;52.998;5.862;2022-12-20T00:55:41;4.78;;;3.58;;
54430;SDS011;40342;52.998;5.862;2022-12-20T00:58:07;7.10;;;3.58;;
54430;SDS011;40342;52.998;5.862;2022-12-20T01:00:32;5.10;;;3.40;;
54430;SDS011;40342;52.998;5.862;2022-12-20T01:02:58;8.95;;;3.50;;
54430;SDS011;40342;52.998;5.862;2022-12-20T01:05:24;4.78;;;3.40;;
54430;SDS011;40342;52.998;5.862;2022-12-20T01:07:49;3.03;;;2.78;;
54430;SDS011;40342;52.998;5.862;2022-12-20T01:10:15;5.93;;;3.00;;
54430;SDS011;40342;52.998;5.862;2022-12-20T01:12:42;4.78;;;3.30;;
54430;SDS011;40342;52.998;5.862;2022-12-20T01:15:08;4.65;;;3.30;;
54430;SDS011;40342;52.998;5.862;2022-12-20T01:17:34;4.65;;;3.22;;
54430;SDS011;40342;52.998;5.862;2022-12-20T01:20:00;4.80;;;3.28;;
54430;SDS011;40342;52.998;5.862;2022-12-20T01:22:26;5.32;;;3.15;;
54430;SDS011;40342;52.998;5.862;2022-12-20T01:24:52;4.63;;;3.45;;
54430;SDS011;40342;52.998;5.862;2022-12-20T01:27:18;4.90;;;3.40;;
54430;SDS011;40342;52.998;5.862;2022-12-20T01:29:43;5.53;;;3.33;;
54430;SDS011;40342;52.998;5.862;2022-12-20T01:32:09;6.30;;;3.45;;
54430;SDS011;40342;52.998;5.862;2022-12-20T01:34:35;5.28;;;3.35;;
54430;SDS011;40342;52.998;5.862;2022-12-20T01:37:00;5.57;;;3.33;;
54430;SDS011;40342;52.998;5.862;2022-12-20T01:39:26;3.20;;;2.90;;
54430;SDS011;40342;52.998;5.862;2022-12-20T01:41:51;3.30;;;3.00;;
54430;SDS011;40342;52.998;5.862;2022-12-20T01:46:43;4.43;;;3.00;;
54430;SDS011;40342;52.998;5.862;2022-12-20T01:49:13;5.78;;;3.45;;
54430;SDS011;40342;52.998;5.862;2022-12-20T01:51:47;5.85;;;3.30;;
54430;SDS011;40342;52.998;5.862;2022-12-20T01:54:22;4.95;;;3.08;;
54430;SDS011;40342;52.998;5.862;2022-12-20T01:56:51;6.03;;;3.03;;
54430;SDS011;40342;52.998;5.862;2022-12-20T01:59:21;7.63;;;3.20;;
54430;SDS011;40342;52.998;5.862;2022-12-20T02:01:46;3.10;;;2.80;;
54430;SDS011;40342;52.998;5.862;2022-12-20T02:04:12;4.28;;;2.70;;
54430;SDS011;40342;52.998;5.862;2022-12-20T02:06:38;6.78;;;2.72;;
54430;SDS011;40342;52.998;5.862;2022-12-20T02:09:04;3.95;;;2.88;;
54430;SDS011;40342;52.998;5.862;2022-12-20T02:16:44;4.18;;;2.88;;
54430;SDS011;40342;52.998;5.862;2022-12-20T02:21:51;3.95;;;2.97;;
54430;SDS011;40342;52.998;5.862;2022-12-20T02:27:20;5.70;;;3.22;;
54430;SDS011;40342;52.998;5.862;2022-12-20T02:30:03;5.32;;;3.22;;
54430;SDS011;40342;52.998;5.862;2022-12-20T02:32:36;5.43;;;3.22;;
54430;SDS011;40342;52.998;5.862;2022-12-20T02:35:07;5.20;;;3.33;;
54430;SDS011;40342;52.998;5.862;2022-12-20T02:37:34;5.47;;;3.83;;
54430;SDS011;40342;52.998;5.862;2022-12-20T02:39:59;7.28;;;3.33;;
54430;SDS011;40342;52.998;5.862;2022-12-20T02:42:26;3.83;;;3.28;;
54430;SDS011;40342;52.998;5.862;2022-12-20T02:44:54;6.93;;;3.38;;
54430;SDS011;40342;52.998;5.862;2022-12-20T02:48:02;5.07;;;3.47;;
54430;SDS011;40342;52.998;5.862;2022-12-20T02:51:02;6.00;;;3.30;;
54430;SDS011;40342;52.998;5.862;2022-12-20T02:53:21;3.88;;;3.47;;
54430;SDS011;40342;52.998;5.862;2022-12-20T02:58:36;6.47;;;3.65;;
54430;SDS011;40342;52.998;5.862;2022-12-20T03:01:09;4.80;;;3.70;;
54430;SDS011;40342;52.998;5.862;2022-12-20T03:03:41;5.32;;;3.25;;
54430;SDS011;40342;52.998;5.862;2022-12-20T03:06:07;4.40;;;3.17;;
54430;SDS011;40342;52.998;5.862;2022-12-20T03:08:33;5.03;;;2.97;;
54430;SDS011;40342;52.998;5.862;2022-12-20T03:10:58;6.50;;;3.80;;
54430;SDS011;40342;52.998;5.862;2022-12-20T03:13:24;4.50;;;3.30;;
54430;SDS011;40342;52.998;5.862;2022-12-20T03:15:50;6.80;;;3.42;;
54430;SDS011;40342;52.998;5.862;2022-12-20T03:18:16;3.75;;;3.20;;
54430;SDS011;40342;52.998;5.862;2022-12-20T03:20:42;8.15;;;3.25;;
54430;SDS011;40342;52.998;5.862;2022-12-20T03:23:08;4.18;;;3.30;;
54430;SDS011;40342;52.998;5.862;2022-12-20T03:25:34;5.50;;;3.13;;
54430;SDS011;40342;52.998;5.862;2022-12-20T03:27:59;4.15;;;3.60;;
54430;SDS011;40342;52.998;5.862;2022-12-20T03:30:25;5.32;;;3.85;;
54430;SDS011;40342;52.998;5.862;2022-12-20T03:32:51;5.95;;;4.00;;
54430;SDS011;40342;52.998;5.862;2022-12-20T03:35:16;5.35;;;3.42;;
54430;SDS011;40342;52.998;5.862;2022-12-20T03:37:42;6.38;;;3.25;;
54430;SDS011;40342;52.998;5.862;2022-12-20T03:40:07;5.82;;;3.35;;
54430;SDS011;40342;52.998;5.862;2022-12-20T03:42:34;5.70;;;3.53;;
54430;SDS011;40342;52.998;5.862;2022-12-20T03:45:00;6.20;;;3.40;;
54430;SDS011;40342;52.998;5.862;2022-12-20T03:47:26;3.70;;;3.10;;
54430;SDS011;40342;52.998;5.862;2022-12-20T03:49:51;3.45;;;3.25;;
54430;SDS011;40342;52.998;5.862;2022-12-20T03:52:17;5.55;;;3.63;;
54430;SDS011;40342;52.998;5.862;2022-12-20T03:54:43;4.35;;;3.58;;
54430;SDS011;40342;52.998;5.862;2022-12-20T03:57:09;5.13;;;3.80;;
54430;SDS011;40342;52.998;5.862;2022-12-20T03:59:35;5.65;;;4.20;;
54430;SDS011;40342;52.998;5.862;2022-12-20T04:02:00;4.47;;;3.75;;
54430;SDS011;40342;52.998;5.862;2022-12-20T04:04:26;6.22;;;3.55;;
54430;SDS011;40342;52.998;5.862;2022-12-20T04:06:52;7.07;;;3.88;;
54430;SDS011;40342;52.998;5.862;2022-12-20T04:09:18;5.82;;;4.20;;
54430;SDS011;40342;52.998;5.862;2022-12-20T04:11:43;5.25;;;3.50;;
54430;SDS011;40342;52.998;5.862;2022-12-20T04:14:09;5.68;;;3.75;;
54430;SDS011;40342;52.998;5.862;2022-12-20T04:16:35;6.28;;;4.00;;
54430;SDS011;40342;52.998;5.862;2022-12-20T04:19:00;5.18;;;3.85;;
54430;SDS011;40342;52.998;5.862;2022-12-20T04:21:30;5.13;;;3.78;;
54430;SDS011;40342;52.998;5.862;2022-12-20T04:23:58;5.25;;;4.00;;
54430;SDS011;40342;52.998;5.862;2022-12-20T04:26:25;4.30;;;3.53;;
54430;SDS011;40342;52.998;5.862;2022-12-20T04:28:50;5.90;;;3.83;;
54430;SDS011;40342;52.998;5.862;2022-12-20T04:31:16;6.10;;;3.78;;
54430;SDS011;40342;52.998;5.862;2022-12-20T04:33:43;7.60;;;4.00;;
54430;SDS011;40342;52.998;5.862;2022-12-20T04:36:09;9.80;;;4.07;;
54430;SDS011;40342;52.998;5.862;2022-12-20T04:38:35;5.45;;;3.70;;
54430;SDS011;40342;52.998;5.862;2022-12-20T04:41:01;5.82;;;4.10;;
54430;SDS011;40342;52.998;5.862;2022-12-20T04:43:27;6.32;;;3.58;;
54430;SDS011;40342;52.998;5.862;2022-12-20T04:45:53;4.20;;;3.58;;
54430;SDS011;40342;52.998;5.862;2022-12-20T04:48:23;5.53;;;4.15;;
54430;SDS011;40342;52.998;5.862;2022-12-20T04:50:53;6.25;;;3.80;;
54430;SDS011;40342;52.998;5.862;2022-12-20T04:53:20;6.28;;;3.90;;
54430;SDS011;40342;52.998;5.862;2022-12-20T04:56:05;4.93;;;3.70;;
54430;SDS011;40342;52.998;5.862;2022-12-20T04:58:31;6.50;;;3.67;;
54430;SDS011;40342;52.998;5.862;2022-12-20T05:00:57;5.10;;;3.70;;
54430;SDS011;40342;52.998;5.862;2022-12-20T05:03:23;5.53;;;3.75;;
54430;SDS011;40342;52.998;5.862;2022-12-20T05:05:49;7.97;;;3.85;;
54430;SDS011;40342;52.998;5.862;2022-12-20T05:08:15;6.88;;;3.50;;
54430;SDS011;40342;52.998;5.862;2022-12-20T05:10:41;6.15;;;3.60;;
54430;SDS011;40342;52.998;5.862;2022-12-20T05:13:07;6.90;;;3.88;;
54430;SDS011;40342;52.998;5.862;2022-12-20T05:15:33;6.88;;;3.65;;
54430;SDS011;40342;52.998;5.862;2022-12-20T05:17:59;7.13;;;3.33;;
54430;SDS011;40342;52.998;5.862;2022-12-20T05:20:25;7.32;;;3.58;;
54430;SDS011;40342;52.998;5.862;2022-12-20T05:22:51;3.45;;;3.15;;
54430;SDS011;40342;52.998;5.862;2022-12-20T05:25:37;4.53;;;3.30;;
54430;SDS011;40342;52.998;5.862;2022-12-20T05:28:35;7.18;;;4.03;;
54430;SDS011;40342;52.998;5.862;2022-12-20T05:31:01;5.00;;;3.30;;
54430;SDS011;40342;52.998;5.862;2022-12-20T05:33:27;4.00;;;3.10;;
54430;SDS011;40342;52.998;5.862;2022-12-20T05:35:53;4.90;;;3.35;;
54430;SDS011;40342;52.998;5.862;2022-12-20T05:38:19;5.15;;;3.97;;
54430;SDS011;40342;52.998;5.862;2022-12-20T05:40:46;5.13;;;3.30;;
54430;SDS011;40342;52.998;5.862;2022-12-20T05:43:12;3.53;;;3.22;;
54430;SDS011;40342;52.998;5.862;2022-12-20T05:45:39;4.85;;;3.40;;
54430;SDS011;40342;52.998;5.862;2022-12-20T05:48:05;5.15;;;3.30;;
54430;SDS011;40342;52.998;5.862;2022-12-20T05:50:30;5.13;;;3.30;;
54430;SDS011;40342;52.998;5.862;2022-12-20T05:52:56;4.95;;;3.38;;
54430;SDS011;40342;52.998;5.862;2022-12-20T05:55:22;6.65;;;3.78;;
54430;SDS011;40342;52.998;5.862;2022-12-20T05:57:47;4.53;;;3.10;;
54430;SDS011;40342;52.998;5.862;2022-12-20T06:00:13;3.58;;;3.20;;
54430;SDS011;40342;52.998;5.862;2022-12-20T06:02:39;6.22;;;3.35;;
54430;SDS011;40342;52.998;5.862;2022-12-20T06:05:05;4.38;;;3.20;;
54430;SDS011;40342;52.998;5.862;2022-12-20T06:07:31;5.22;;;3.20;;
54430;SDS011;40342;52.998;5.862;2022-12-20T06:09:57;5.82;;;3.50;;
54430;SDS011;40342;52.998;5.862;2022-12-20T06:12:29;5.60;;;3.00;;
54430;SDS011;40342;52.998;5.862;2022-12-20T06:14:54;4.68;;;3.10;;
54430;SDS011;40342;52.998;5.862;2022-12-20T06:17:21;5.63;;;3.45;;
54430;SDS011;40342;52.998;5.862;2022-12-20T06:19:46;3.58;;;3.10;;
54430;SDS011;40342;52.998;5.862;2022-12-20T06:22:12;5.05;;;3.47;;
54430;SDS011;40342;52.998;5.862;2022-12-20T06:24:38;3.53;;;3.22;;
54430;SDS011;40342;52.998;5.862;2022-12-20T06:27:03;5.38;;;3.70;;
54430;SDS011;40342;52.998;5.862;2022-12-20T06:29:31;6.85;;;3.67;;
54430;SDS011;40342;52.998;5.862;2022-12-20T06:31:57;5.47;;;4.10;;
54430;SDS011;40342;52.998;5.862;2022-12-20T06:34:23;6.85;;;4.05;;
54430;SDS011;40342;52.998;5.862;2022-12-20T06:36:48;5.57;;;4.10;;
54430;SDS011;40342;52.998;5.862;2022-12-20T06:39:14;6.30;;;4.20;;
54430;SDS011;40342;52.998;5.862;2022-12-20T06:41:40;6.82;;;4.07;;
54430;SDS011;40342;52.998;5.862;2022-12-20T06:44:05;4.90;;;3.90;;
54430;SDS011;40342;52.998;5.862;2022-12-20T06:46:31;5.82;;;3.92;;
54430;SDS011;40342;52.998;5.862;2022-12-20T06:48:57;5.45;;;4.07;;
54430;SDS011;40342;52.998;5.862;2022-12-20T06:51:23;5.47;;;4.32;;
54430;SDS011;40342;52.998;5.862;2022-12-20T06:53:49;4.60;;;4.13;;
54430;SDS011;40342;52.998;5.862;2022-12-20T06:56:14;9.48;;;4.78;;
54430;SDS011;40342;52.998;5.862;2022-12-20T06:58:40;5.15;;;4.43;;
54430;SDS011;40342;52.998;5.862;2022-12-20T07:01:06;5.90;;;4.18;;
54430;SDS011;40342;52.998;5.862;2022-12-20T07:03:31;8.40;;;4.75;;
54430;SDS011;40342;52.998;5.862;2022-12-20T07:05:57;6.85;;;5.07;;
54430;SDS011;40342;52.998;5.862;2022-12-20T07:08:23;6.10;;;4.85;;
54430;SDS011;40342;52.998;5.862;2022-12-20T07:10:49;8.02;;;4.72;;
54430;SDS011;40342;52.998;5.862;2022-12-20T07:13:16;5.30;;;4.03;;
54430;SDS011;40342;52.998;5.862;2022-12-20T07:15:43;6.40;;;4.55;;
54430;SDS011;40342;52.998;5.862;2022-12-20T07:18:09;7.05;;;4.32;;
54430;SDS011;40342;52.998;5.862;2022-12-20T07:20:34;6.95;;;4.78;;
54430;SDS011;40342;52.998;5.862;2022-12-20T07:23:00;5.18;;;4.10;;
54430;SDS011;40342;52.998;5.862;2022-12-20T07:25:26;5.35;;;4.15;;
54430;SDS011;40342;52.998;5.862;2022-12-20T07:27:52;6.32;;;4.78;;
54430;SDS011;40342;52.998;5.862;2022-12-20T07:30:17;4.50;;;4.10;;
54430;SDS011;40342;52.998;5.862;2022-12-20T07:32:44;4.50;;;4.10;;
54430;SDS011;40342;52.998;5.862;2022-12-20T07:35:10;5.25;;;4.20;;
54430;SDS011;40342;52.998;5.862;2022-12-20T07:37:36;6.28;;;4.63;;
54430;SDS011;40342;52.998;5.862;2022-12-20T07:40:03;4.80;;;4.30;;
54430;SDS011;40342;52.998;5.862;2022-12-20T07:42:29;4.93;;;4.00;;
54430;SDS011;40342;52.998;5.862;2022-12-20T07:44:55;4.95;;;4.45;;
54430;SDS011;40342;52.998;5.862;2022-12-20T07:47:21;5.43;;;4.38;;
54430;SDS011;40342;52.998;5.862;2022-12-20T07:49:46;5.97;;;4.53;;
54430;SDS011;40342;52.998;5.862;2022-12-20T07:52:13;5.50;;;4.05;;
54430;SDS011;40342;52.998;5.862;2022-12-20T07:54:44;6.50;;;3.72;;
54430;SDS011;40342;52.998;5.862;2022-12-20T07:57:17;4.40;;;4.00;;
54430;SDS011;40342;52.998;5.862;2022-12-20T07:59:49;5.40;;;4.07;;
54430;SDS011;40342;52.998;5.862;2022-12-20T08:02:22;7.28;;;3.85;;
54430;SDS011;40342;52.998;5.862;2022-12-20T08:04:59;3.90;;;3.42;;
54430;SDS011;40342;52.998;5.862;2022-12-20T08:07:26;4.57;;;4.28;;
54430;SDS011;40342;52.998;5.862;2022-12-20T08:13:35;6.00;;;3.35;;
54430;SDS011;40342;52.998;5.862;2022-12-20T08:16:01;5.30;;;3.78;;
54430;SDS011;40342;52.998;5.862;2022-12-20T08:18:27;5.93;;;3.33;;
54430;SDS011;40342;52.998;5.862;2022-12-20T08:20:52;6.88;;;4.00;;
54430;SDS011;40342;52.998;5.862;2022-12-20T08:23:18;8.15;;;3.40;;
54430;SDS011;40342;52.998;5.862;2022-12-20T08:25:44;4.22;;;3.35;;
54430;SDS011;40342;52.998;5.862;2022-12-20T08:28:09;5.18;;;3.28;;
54430;SDS011;40342;52.998;5.862;2022-12-20T08:30:35;7.45;;;3.28;;
54430;SDS011;40342;52.998;5.862;2022-12-20T08:33:01;4.47;;;3.30;;
54430;SDS011;40342;52.998;5.862;2022-12-20T08:35:27;6.85;;;3.55;;
54430;SDS011;40342;52.998;5.862;2022-12-20T08:37:52;6.80;;;3.28;;
54430;SDS011;40342;52.998;5.862;2022-12-20T08:40:18;6.95;;;2.95;;
54430;SDS011;40342;52.998;5.862;2022-12-20T08:42:44;4.03;;;2.80;;
54430;SDS011;40342;52.998;5.862;2022-12-20T08:45:10;4.80;;;3.30;;
54430;SDS011;40342;52.998;5.862;2022-12-20T08:47:36;8.00;;;4.15;;
54430;SDS011;40342;52.998;5.862;2022-12-20T08:50:02;6.25;;;4.43;;
54430;SDS011;40342;52.998;5.862;2022-12-20T08:52:28;8.88;;;3.65;;
54430;SDS011;40342;52.998;5.862;2022-12-20T08:54:53;6.45;;;2.92;;
54430;SDS011;40342;52.998;5.862;2022-12-20T08:57:19;3.95;;;2.88;;
54430;SDS011;40342;52.998;5.862;2022-12-20T08:59:45;5.03;;;2.60;;
54430;SDS011;40342;52.998;5.862;2022-12-20T09:02:10;5.18;;;2.70;;
54430;SDS011;40342;52.998;5.862;2022-12-20T09:04:36;4.40;;;2.95;;
54430;SDS011;40342;52.998;5.862;2022-12-20T09:07:02;4.30;;;2.63;;
54430;SDS011;40342;52.998;5.862;2022-12-20T09:09:27;4.07;;;2.60;;
54430;SDS011;40342;52.998;5.862;2022-12-20T09:11:53;4.45;;;2.50;;
54430;SDS011;40342;52.998;5.862;2022-12-20T09:14:19;4.95;;;2.67;;
54430;SDS011;40342;52.998;5.862;2022-12-20T09:16:45;2.55;;;2.15;;
54430;SDS011;40342;52.998;5.862;2022-12-20T09:19:11;6.25;;;2.53;;
54430;SDS011;40342;52.998;5.862;2022-12-20T09:21:38;5.18;;;2.70;;
54430;SDS011;40342;52.998;5.862;2022-12-20T09:24:04;3.85;;;2.40;;
54430;SDS011;40342;52.998;5.862;2022-12-20T09:26:30;2.60;;;2.05;;
54430;SDS011;40342;52.998;5.862;2022-12-20T09:28:56;4.35;;;2.28;;
54430;SDS011;40342;52.998;5.862;2022-12-20T09:31:23;6.03;;;2.42;;
54430;SDS011;40342;52.998;5.862;2022-12-20T09:33:52;4.43;;;2.55;;
54430;SDS011;40342;52.998;5.862;2022-12-20T09:36:22;4.18;;;2.60;;
54430;SDS011;40342;52.998;5.862;2022-12-20T09:38:49;5.30;;;2.50;;
54430;SDS011;40342;52.998;5.862;2022-12-20T09:46:38;3.83;;;2.28;;
54430;SDS011;40342;52.998;5.862;2022-12-20T09:49:05;6.18;;;2.75;;
54430;SDS011;40342;52.998;5.862;2022-12-20T09:51:38;3.22;;;2.63;;
54430;SDS011;40342;52.998;5.862;2022-12-20T09:57:25;4.90;;;2.97;;
54430;SDS011;40342;52.998;5.862;2022-12-20T10:00:10;3.40;;;2.10;;
54430;SDS011;40342;52.998;5.862;2022-12-20T10:02:38;5.45;;;2.58;;
54430;SDS011;40342;52.998;5.862;2022-12-20T10:05:05;4.80;;;2.65;;
54430;SDS011;40342;52.998;5.862;2022-12-20T10:07:43;3.45;;;2.60;;
54430;SDS011;40342;52.998;5.862;2022-12-20T10:10:43;3.95;;;2.33;;
54430;SDS011;40342;52.998;5.862;2022-12-20T10:13:14;2.20;;;2.10;;
54430;SDS011;40342;52.998;5.862;2022-12-20T10:24:32;4.75;;;2.15;;
54430;SDS011;40342;52.998;5.862;2022-12-20T10:27:12;4.40;;;2.22;;
54430;SDS011;40342;52.998;5.862;2022-12-20T10:29:48;4.95;;;2.65;;
54430;SDS011;40342;52.998;5.862;2022-12-20T10:32:18;4.93;;;2.53;;
54430;SDS011;40342;52.998;5.862;2022-12-20T10:34:51;7.28;;;2.47;;
54430;SDS011;40342;52.998;5.862;2022-12-20T10:37:34;3.38;;;2.55;;
54430;SDS011;40342;52.998;5.862;2022-12-20T10:40:00;8.63;;;2.65;;
54430;SDS011;40342;52.998;5.862;2022-12-20T10:42:38;5.22;;;2.20;;
54430;SDS011;40342;52.998;5.862;2022-12-20T10:45:29;3.60;;;2.28;;
54430;SDS011;40342;52.998;5.862;2022-12-20T10:48:03;7.45;;;2.65;;
54430;SDS011;40342;52.998;5.862;2022-12-20T10:50:30;8.70;;;2.47;;
54430;SDS011;40342;52.998;5.862;2022-12-20T10:53:04;4.45;;;2.47;;
54430;SDS011;40342;52.998;5.862;2022-12-20T10:55:43;4.53;;;2.22;;
54430;SDS011;40342;52.998;5.862;2022-12-20T10:58:16;4.68;;;2.33;;
54430;SDS011;40342;52.998;5.862;2022-12-20T11:01:02;4.80;;;2.85;;
54430;SDS011;40342;52.998;5.862;2022-12-20T11:03:30;4.15;;;2.40;;
54430;SDS011;40342;52.998;5.862;2022-12-20T11:05:57;5.05;;;2.45;;
54430;SDS011;40342;52.998;5.862;2022-12-20T11:08:26;5.32;;;2.50;;
54430;SDS011;40342;52.998;5.862;2022-12-20T11:13:47;6.40;;;2.70;;
54430;SDS011;40342;52.998;5.862;2022-12-20T11:16:21;3.85;;;2.50;;
54430;SDS011;40342;52.998;5.862;2022-12-20T11:18:50;4.03;;;2.45;;
54430;SDS011;40342;52.998;5.862;2022-12-20T11:21:58;6.47;;;2.70;;
54430;SDS011;40342;52.998;5.862;2022-12-20T11:24:44;3.85;;;2.70;;
54430;SDS011;40342;52.998;5.862;2022-12-20T11:27:15;3.78;;;2.85;;
54430;SDS011;40342;52.998;5.862;2022-12-20T11:38:51;5.28;;;2.75;;
54430;SDS011;40342;52.998;5.862;2022-12-20T11:52:20;4.30;;;3.20;;
54430;SDS011;40342;52.998;5.862;2022-12-20T11:54:51;3.92;;;3.08;;
54430;SDS011;40342;52.998;5.862;2022-12-20T11:57:30;4.57;;;3.40;;
54430;SDS011;40342;52.998;5.862;2022-12-20T12:00:05;5.35;;;3.50;;
54430;SDS011;40342;52.998;5.862;2022-12-20T12:05:04;5.30;;;3.90;;
54430;SDS011;40342;52.998;5.862;2022-12-20T12:07:32;8.07;;;3.67;;
54430;SDS011;40342;52.998;5.862;2022-12-20T12:10:02;6.57;;;3.92;;
54430;SDS011;40342;52.998;5.862;2022-12-20T12:12:49;4.90;;;3.78;;
54430;SDS011;40342;52.998;5.862;2022-12-20T12:15:29;6.57;;;4.20;;
54430;SDS011;40342;52.998;5.862;2022-12-20T12:18:20;6.32;;;4.45;;
54430;SDS011;40342;52.998;5.862;2022-12-20T12:26:14;5.07;;;4.05;;
54430;SDS011;40342;52.998;5.862;2022-12-20T12:28:50;7.65;;;4.82;;
54430;SDS011;40342;52.998;5.862;2022-12-20T12:31:22;4.88;;;4.38;;
54430;SDS011;40342;52.998;5.862;2022-12-20T12:36:46;6.93;;;4.85;;
54430;SDS011;40342;52.998;5.862;2022-12-20T12:45:14;6.57;;;5.30;;
54430;SDS011;40342;52.998;5.862;2022-12-20T12:47:50;5.05;;;4.38;;
54430;SDS011;40342;52.998;5.862;2022-12-20T12:50:35;6.72;;;5.30;;
54430;SDS011;40342;52.998;5.862;2022-12-20T12:53:07;6.05;;;5.25;;
54430;SDS011;40342;52.998;5.862;2022-12-20T12:55:48;5.97;;;4.50;;
54430;SDS011;40342;52.998;5.862;2022-12-20T13:00:54;7.80;;;4.65;;
54430;SDS011;40342;52.998;5.862;2022-12-20T13:11:54;5.63;;;4.88;;
54430;SDS011;40342;52.998;5.862;2022-12-20T13:16:43;6.70;;;4.75;;
54430;SDS011;40342;52.998;5.862;2022-12-20T13:19:10;7.55;;;4.68;;
54430;SDS011;40342;52.998;5.862;2022-12-20T13:21:37;6.53;;;4.97;;
54430;SDS011;40342;52.998;5.862;2022-12-20T13:27:21;6.20;;;5.60;;
54430;SDS011;40342;52.998;5.862;2022-12-20T13:37:57;7.25;;;5.65;;
54430;SDS011;40342;52.998;5.862;2022-12-20T13:45:57;6.50;;;5.65;;
54430;SDS011;40342;52.998;5.862;2022-12-20T13:51:27;9.45;;;6.68;;
54430;SDS011;40342;52.998;5.862;2022-12-20T13:58:57;8.60;;;7.07;;
54430;SDS011;40342;52.998;5.862;2022-12-20T14:01:28;11.18;;;7.40;;
54430;SDS011;40342;52.998;5.862;2022-12-20T14:03:55;8.35;;;7.45;;
54430;SDS011;40342;52.998;5.862;2022-12-20T14:06:22;9.57;;;7.50;;
54430;SDS011;40342;52.998;5.862;2022-12-20T14:08:49;8.85;;;7.93;;
54430;SDS011;40342;52.998;5.862;2022-12-20T14:11:17;12.57;;;8.27;;
54430;SDS011;40342;52.998;5.862;2022-12-20T14:16:18;10.90;;;8.98;;
54430;SDS011;40342;52.998;5.862;2022-12-20T14:19:03;12.98;;;9.40;;
54430;SDS011;40342;52.998;5.862;2022-12-20T14:21:30;10.45;;;9.43;;
54430;SDS011;40342;52.998;5.862;2022-12-20T14:24:00;14.27;;;9.52;;
54430;SDS011;40342;52.998;5.862;2022-12-20T14:26:28;12.30;;;9.07;;
54430;SDS011;40342;52.998;5.862;2022-12-20T14:28:57;11.02;;;9.98;;
54430;SDS011;40342;52.998;5.862;2022-12-20T14:31:27;12.18;;;10.20;;
54430;SDS011;40342;52.998;5.862;2022-12-20T14:34:06;14.63;;;10.85;;
54430;SDS011;40342;52.998;5.862;2022-12-20T14:36:44;12.48;;;10.48;;
54430;SDS011;40342;52.998;5.862;2022-12-20T14:39:27;16.98;;;11.00;;
54430;SDS011;40342;52.998;5.862;2022-12-20T14:41:56;13.57;;;11.75;;
54430;SDS011;40342;52.998;5.862;2022-12-20T14:44:23;13.68;;;11.13;;
54430;SDS011;40342;52.998;5.862;2022-12-20T14:46:52;12.38;;;10.98;;
54430;SDS011;40342;52.998;5.862;2022-12-20T14:51:52;15.80;;;12.52;;
54430;SDS011;40342;52.998;5.862;2022-12-20T14:54:30;12.95;;;11.68;;
54430;SDS011;40342;52.998;5.862;2022-12-20T14:56:57;14.57;;;12.60;;
54430;SDS011;40342;52.998;5.862;2022-12-20T14:59:27;18.50;;;13.38;;
54430;SDS011;40342;52.998;5.862;2022-12-20T15:01:55;19.27;;;14.17;;
54430;SDS011;40342;52.998;5.862;2022-12-20T15:06:57;17.27;;;14.30;;
54430;SDS011;40342;52.998;5.862;2022-12-20T15:09:24;15.80;;;14.15;;
54430;SDS011;40342;52.998;5.862;2022-12-20T15:11:50;16.33;;;14.50;;
54430;SDS011;40342;52.998;5.862;2022-12-20T15:17:08;17.38;;;15.73;;
54430;SDS011;40342;52.998;5.862;2022-12-20T15:19:36;18.50;;;16.58;;
54430;SDS011;40342;52.998;5.862;2022-12-20T15:22:01;18.95;;;17.08;;
54430;SDS011;40342;52.998;5.862;2022-12-20T15:24:28;26.80;;;17.13;;
54430;SDS011;40342;52.998;5.862;2022-12-20T15:26:53;21.80;;;16.73;;
54430;SDS011;40342;52.998;5.862;2022-12-20T15:29:20;20.55;;;17.08;;
54430;SDS011;40342;52.998;5.862;2022-12-20T15:31:48;20.55;;;16.77;;
54430;SDS011;40342;52.998;5.862;2022-12-20T15:36:58;23.17;;;18.23;;
54430;SDS011;40342;52.998;5.862;2022-12-20T15:39:24;22.02;;;18.70;;
54430;SDS011;40342;52.998;5.862;2022-12-20T15:41:51;20.58;;;18.20;;
54430;SDS011;40342;52.998;5.862;2022-12-20T15:46:50;22.05;;;18.85;;
54430;SDS011;40342;52.998;5.862;2022-12-20T15:49:17;23.98;;;20.27;;
54430;SDS011;40342;52.998;5.862;2022-12-20T15:51:45;23.27;;;20.02;;
54430;SDS011;40342;52.998;5.862;2022-12-20T15:54:22;26.27;;;19.95;;
54430;SDS011;40342;52.998;5.862;2022-12-20T15:56:52;22.48;;;20.05;;
54430;SDS011;40342;52.998;5.862;2022-12-20T15:59:21;22.92;;;20.50;;
54430;SDS011;40342;52.998;5.862;2022-12-20T16:01:47;29.83;;;21.02;;
54430;SDS011;40342;52.998;5.862;2022-12-20T16:04:18;26.13;;;21.33;;
54430;SDS011;40342;52.998;5.862;2022-12-20T16:06:45;25.00;;;20.88;;
54430;SDS011;40342;52.998;5.862;2022-12-20T16:09:12;24.02;;;21.30;;
54430;SDS011;40342;52.998;5.862;2022-12-20T16:11:39;29.65;;;21.25;;
54430;SDS011;40342;52.998;5.862;2022-12-20T16:14:05;30.85;;;21.30;;
54430;SDS011;40342;52.998;5.862;2022-12-20T16:16:34;29.20;;;21.13;;
54430;SDS011;40342;52.998;5.862;2022-12-20T16:19:01;27.30;;;21.10;;
54430;SDS011;40342;52.998;5.862;2022-12-20T16:21:31;27.85;;;20.73;;
54430;SDS011;40342;52.998;5.862;2022-12-20T16:24:04;26.45;;;21.52;;
54430;SDS011;40342;52.998;5.862;2022-12-20T16:26:30;26.75;;;20.40;;
54430;SDS011;40342;52.998;5.862;2022-12-20T16:28:56;26.15;;;20.33;;
54430;SDS011;40342;52.998;5.862;2022-12-20T16:33:47;27.42;;;20.77;;
54430;SDS011;40342;52.998;5.862;2022-12-20T16:36:13;27.42;;;21.67;;
54430;SDS011;40342;52.998;5.862;2022-12-20T16:38:39;29.38;;;22.48;;
54430;SDS011;40342;52.998;5.862;2022-12-20T16:41:18;32.08;;;23.15;;
54430;SDS011;40342;52.998;5.862;2022-12-20T16:43:45;32.20;;;22.67;;
54430;SDS011;40342;52.998;5.862;2022-12-20T16:46:12;31.33;;;21.90;;
54430;SDS011;40342;52.998;5.862;2022-12-20T16:48:40;32.60;;;24.50;;
54430;SDS011;40342;52.998;5.862;2022-12-20T16:51:11;31.98;;;25.27;;
54430;SDS011;40342;52.998;5.862;2022-12-20T16:53:51;37.78;;;25.70;;
54430;SDS011;40342;52.998;5.862;2022-12-20T16:56:17;37.00;;;26.75;;
54430;SDS011;40342;52.998;5.862;2022-12-20T16:58:43;35.78;;;26.10;;
54430;SDS011;40342;52.998;5.862;2022-12-20T17:01:13;32.35;;;25.63;;
54430;SDS011;40342;52.998;5.862;2022-12-20T17:03:43;37.80;;;26.45;;
54430;SDS011;40342;52.998;5.862;2022-12-20T17:06:10;39.60;;;26.70;;
54430;SDS011;40342;52.998;5.862;2022-12-20T17:08:37;32.67;;;25.90;;